Woodruff, Idaho
Current Conditions -  °F | °C
As of 4:51 AM on Friday 19 Dec 2014 (Local Time) from KLGU Reporting Station
Overcast Overcast  
Wind Chill: 31°   Ceiling: 6500
Heat Index: 31°   Visibility: 10mi
Dew Point: 27°   Wind: 0mph
Humidity: 85%   Direction: NA
Pressure: 30.17"   Gusts: NA
Location:  42.2285°N, 112.313°W
Report Text: KLGU 191151Z AUTO 00000KT 10SM OVC065 M01/M03 A3017 RMK AO2 SLP225 T10061028 10006 21044 58003
Loading
Personal Weather Stations






























Interactive Weather Map New forecast layout! Learn more

10-Day Weather Forecast

Advertisements
Track Severe Weather on mobile